sensor_id;sensor_type;location;lat;lon;timestamp;pressure;altitude;pressure_sealevel;temperature;humidity
59825;BME280;45703;50.898;6.054;2023-03-21T00:01:52;100318.91;;;10.19;81.05
59825;BME280;45703;50.898;6.054;2023-03-21T00:04:18;100316.22;;;10.19;81.27
59825;BME280;45703;50.898;6.054;2023-03-21T00:06:44;100303.72;;;10.20;81.17
59825;BME280;45703;50.898;6.054;2023-03-21T00:09:09;100310.25;;;10.24;81.24
59825;BME280;45703;50.898;6.054;2023-03-21T00:11:36;100311.44;;;10.28;81.66
59825;BME280;45703;50.898;6.054;2023-03-21T00:14:01;100292.78;;;10.28;81.28
59825;BME280;45703;50.898;6.054;2023-03-21T00:16:27;100302.22;;;10.30;81.42
59825;BME280;45703;50.898;6.054;2023-03-21T00:18:55;100305.06;;;10.29;81.51
59825;BME280;45703;50.898;6.054;2023-03-21T00:21:22;100303.88;;;10.25;81.64
59825;BME280;45703;50.898;6.054;2023-03-21T00:23:53;100302.63;;;10.27;81.57
59825;BME280;45703;50.898;6.054;2023-03-21T00:26:19;100311.63;;;10.33;81.79
59825;BME280;45703;50.898;6.054;2023-03-21T00:28:47;100303.00;;;10.31;81.70
59825;BME280;45703;50.898;6.054;2023-03-21T00:31:13;100306.28;;;10.33;81.78
59825;BME280;45703;50.898;6.054;2023-03-21T00:33:38;100308.34;;;10.31;81.98
59825;BME280;45703;50.898;6.054;2023-03-21T00:36:05;100297.66;;;10.31;81.99
59825;BME280;45703;50.898;6.054;2023-03-21T00:38:31;100296.03;;;10.30;82.28
59825;BME280;45703;50.898;6.054;2023-03-21T00:40:56;100289.06;;;10.29;82.15
59825;BME280;45703;50.898;6.054;2023-03-21T00:43:22;100288.91;;;10.24;82.62
59825;BME280;45703;50.898;6.054;2023-03-21T00:45:55;100284.84;;;10.21;82.66
59825;BME280;45703;50.898;6.054;2023-03-21T00:48:22;100279.50;;;10.21;82.96
59825;BME280;45703;50.898;6.054;2023-03-21T00:50:49;100272.69;;;10.25;83.11
59825;BME280;45703;50.898;6.054;2023-03-21T00:53:16;100272.75;;;10.19;83.23
59825;BME280;45703;50.898;6.054;2023-03-21T00:55:42;100268.03;;;10.14;83.54
59825;BME280;45703;50.898;6.054;2023-03-21T00:58:07;100273.44;;;10.08;83.72
59825;BME280;45703;50.898;6.054;2023-03-21T01:00:33;100250.09;;;10.03;84.21
59825;BME280;45703;50.898;6.054;2023-03-21T01:03:02;100258.03;;;10.10;83.91
59825;BME280;45703;50.898;6.054;2023-03-21T01:05:32;100255.81;;;10.07;83.91
59825;BME280;45703;50.898;6.054;2023-03-21T01:08:17;100254.63;;;10.03;84.94
59825;BME280;45703;50.898;6.054;2023-03-21T01:10:45;100244.19;;;9.95;84.61
59825;BME280;45703;50.898;6.054;2023-03-21T01:13:12;100238.84;;;9.95;84.93
59825;BME280;45703;50.898;6.054;2023-03-21T01:15:43;100249.09;;;9.98;84.75
59825;BME280;45703;50.898;6.054;2023-03-21T01:18:11;100238.22;;;9.93;85.04
59825;BME280;45703;50.898;6.054;2023-03-21T01:20:39;100242.53;;;9.94;85.05
59825;BME280;45703;50.898;6.054;2023-03-21T01:23:05;100243.19;;;9.90;85.95
59825;BME280;45703;50.898;6.054;2023-03-21T01:25:31;100235.63;;;9.87;86.79
59825;BME280;45703;50.898;6.054;2023-03-21T01:27:56;100235.03;;;9.85;86.57
59825;BME280;45703;50.898;6.054;2023-03-21T01:30:21;100234.25;;;9.78;86.88
59825;BME280;45703;50.898;6.054;2023-03-21T01:32:47;100235.06;;;9.78;86.14
59825;BME280;45703;50.898;6.054;2023-03-21T01:35:12;100231.19;;;9.74;86.02
59825;BME280;45703;50.898;6.054;2023-03-21T01:37:38;100235.31;;;9.70;86.86
59825;BME280;45703;50.898;6.054;2023-03-21T01:40:04;100232.47;;;9.72;86.73
59825;BME280;45703;50.898;6.054;2023-03-21T01:42:31;100225.91;;;9.68;87.23
59825;BME280;45703;50.898;6.054;2023-03-21T01:44:59;100214.88;;;9.64;87.47
59825;BME280;45703;50.898;6.054;2023-03-21T01:47:26;100217.53;;;9.64;86.67
59825;BME280;45703;50.898;6.054;2023-03-21T01:49:57;100220.19;;;9.64;86.44
59825;BME280;45703;50.898;6.054;2023-03-21T01:52:28;100213.66;;;9.60;86.97
59825;BME280;45703;50.898;6.054;2023-03-21T01:54:56;100205.28;;;9.57;87.70
59825;BME280;45703;50.898;6.054;2023-03-21T01:57:36;100213.50;;;9.55;86.94
59825;BME280;45703;50.898;6.054;2023-03-21T02:00:04;100202.59;;;9.57;85.80
59825;BME280;45703;50.898;6.054;2023-03-21T02:02:39;100203.88;;;9.54;87.34
59825;BME280;45703;50.898;6.054;2023-03-21T02:05:21;100203.03;;;9.54;87.35
59825;BME280;45703;50.898;6.054;2023-03-21T02:07:50;100197.34;;;9.50;87.25
59825;BME280;45703;50.898;6.054;2023-03-21T02:10:17;100187.72;;;9.49;86.78
59825;BME280;45703;50.898;6.054;2023-03-21T02:12:43;100191.19;;;9.50;87.96
59825;BME280;45703;50.898;6.054;2023-03-21T02:15:09;100189.53;;;9.49;88.18
59825;BME280;45703;50.898;6.054;2023-03-21T02:17:55;100186.25;;;9.53;87.70
59825;BME280;45703;50.898;6.054;2023-03-21T02:26:17;100171.50;;;9.51;88.79
59825;BME280;45703;50.898;6.054;2023-03-21T02:28:48;100162.91;;;9.49;88.87
59825;BME280;45703;50.898;6.054;2023-03-21T02:37:14;100154.28;;;9.53;88.01
59825;BME280;45703;50.898;6.054;2023-03-21T02:47:47;100140.34;;;9.51;88.66
59825;BME280;45703;50.898;6.054;2023-03-21T02:50:23;100132.34;;;9.51;89.16
59825;BME280;45703;50.898;6.054;2023-03-21T02:52:52;100144.06;;;9.50;89.35
59825;BME280;45703;50.898;6.054;2023-03-21T02:55:24;100142.19;;;9.51;89.34
59825;BME280;45703;50.898;6.054;2023-03-21T02:57:51;100136.06;;;9.50;89.29
59825;BME280;45703;50.898;6.054;2023-03-21T03:00:21;100130.13;;;9.48;88.85
59825;BME280;45703;50.898;6.054;2023-03-21T03:02:48;100138.72;;;9.50;89.41
59825;BME280;45703;50.898;6.054;2023-03-21T03:05:21;100136.66;;;9.52;88.94
59825;BME280;45703;50.898;6.054;2023-03-21T03:23:44;100127.50;;;9.66;86.83
59825;BME280;45703;50.898;6.054;2023-03-21T03:26:18;100129.34;;;9.66;87.19
59825;BME280;45703;50.898;6.054;2023-03-21T03:28:48;100124.59;;;9.68;86.91
59825;BME280;45703;50.898;6.054;2023-03-21T03:31:22;100119.28;;;9.68;86.94
59825;BME280;45703;50.898;6.054;2023-03-21T03:33:51;100123.97;;;9.72;87.42
59825;BME280;45703;50.898;6.054;2023-03-21T03:36:19;100119.47;;;9.73;87.85
59825;BME280;45703;50.898;6.054;2023-03-21T03:38:48;100124.81;;;9.73;88.02
59825;BME280;45703;50.898;6.054;2023-03-21T03:41:20;100119.22;;;9.74;87.73
59825;BME280;45703;50.898;6.054;2023-03-21T03:43:54;100117.59;;;9.73;87.12
59825;BME280;45703;50.898;6.054;2023-03-21T03:49:01;100110.63;;;9.72;88.18
59825;BME280;45703;50.898;6.054;2023-03-21T03:51:42;100109.59;;;9.73;88.33
59825;BME280;45703;50.898;6.054;2023-03-21T03:54:16;100107.97;;;9.72;88.72
59825;BME280;45703;50.898;6.054;2023-03-21T03:56:43;100110.19;;;9.75;88.71
59825;BME280;45703;50.898;6.054;2023-03-21T03:59:09;100110.63;;;9.72;88.88
59825;BME280;45703;50.898;6.054;2023-03-21T04:01:35;100105.91;;;9.74;88.75
59825;BME280;45703;50.898;6.054;2023-03-21T04:04:00;100112.88;;;9.75;88.57
59825;BME280;45703;50.898;6.054;2023-03-21T04:06:26;100106.50;;;9.76;87.93
59825;BME280;45703;50.898;6.054;2023-03-21T04:08:55;100110.59;;;9.79;87.51
59825;BME280;45703;50.898;6.054;2023-03-21T04:11:21;100109.75;;;9.78;88.32
59825;BME280;45703;50.898;6.054;2023-03-21T04:13:47;100105.03;;;9.80;87.59
59825;BME280;45703;50.898;6.054;2023-03-21T04:16:12;100095.19;;;9.81;86.96
59825;BME280;45703;50.898;6.054;2023-03-21T04:18:39;100109.03;;;9.89;87.40
59825;BME280;45703;50.898;6.054;2023-03-21T04:21:12;100105.56;;;9.89;87.32
59825;BME280;45703;50.898;6.054;2023-03-21T04:23:38;100109.63;;;9.91;88.12
59825;BME280;45703;50.898;6.054;2023-03-21T04:26:04;100098.81;;;9.86;87.80
59825;BME280;45703;50.898;6.054;2023-03-21T04:28:31;100098.16;;;9.91;87.44
59825;BME280;45703;50.898;6.054;2023-03-21T04:30:57;100103.06;;;9.94;86.87
59825;BME280;45703;50.898;6.054;2023-03-21T04:33:23;100086.91;;;9.89;87.01
59825;BME280;45703;50.898;6.054;2023-03-21T04:35:52;100097.34;;;9.90;86.59
59825;BME280;45703;50.898;6.054;2023-03-21T04:38:21;100102.59;;;10.03;86.28
59825;BME280;45703;50.898;6.054;2023-03-21T04:40:47;100100.53;;;10.05;86.13
59825;BME280;45703;50.898;6.054;2023-03-21T04:43:12;100100.53;;;10.05;86.35
59825;BME280;45703;50.898;6.054;2023-03-21T04:45:38;100091.63;;;10.11;86.39
59825;BME280;45703;50.898;6.054;2023-03-21T04:48:03;100098.44;;;10.07;86.27
59825;BME280;45703;50.898;6.054;2023-03-21T04:50:29;100092.66;;;10.10;86.03
59825;BME280;45703;50.898;6.054;2023-03-21T04:52:55;100096.72;;;10.12;85.87
59825;BME280;45703;50.898;6.054;2023-03-21T04:55:21;100091.78;;;10.16;85.60
59825;BME280;45703;50.898;6.054;2023-03-21T04:57:47;100087.47;;;10.15;85.66
59825;BME280;45703;50.898;6.054;2023-03-21T05:00:13;100104.06;;;10.17;85.80
59825;BME280;45703;50.898;6.054;2023-03-21T05:02:39;100090.16;;;10.15;85.83
59825;BME280;45703;50.898;6.054;2023-03-21T05:05:05;100090.16;;;10.15;86.17
59825;BME280;45703;50.898;6.054;2023-03-21T05:07:36;100098.31;;;10.20;85.54
59825;BME280;45703;50.898;6.054;2023-03-21T05:10:01;100100.97;;;10.20;85.35
59825;BME280;45703;50.898;6.054;2023-03-21T05:12:27;100091.34;;;10.19;85.32
59825;BME280;45703;50.898;6.054;2023-03-21T05:14:52;100088.38;;;10.27;85.05
59825;BME280;45703;50.898;6.054;2023-03-21T05:17:17;100085.94;;;10.25;85.13
59825;BME280;45703;50.898;6.054;2023-03-21T05:19:47;100087.19;;;10.23;85.01
59825;BME280;45703;50.898;6.054;2023-03-21T05:22:15;100087.91;;;10.30;84.60
59825;BME280;45703;50.898;6.054;2023-03-21T05:24:43;100089.78;;;10.29;84.58
59825;BME280;45703;50.898;6.054;2023-03-21T05:27:17;100092.66;;;10.28;84.96
59825;BME280;45703;50.898;6.054;2023-03-21T05:30:19;100097.34;;;10.32;84.07
59825;BME280;45703;50.898;6.054;2023-03-21T05:32:45;100111.19;;;10.41;83.89
59825;BME280;45703;50.898;6.054;2023-03-21T05:35:11;100107.03;;;10.45;83.43
59825;BME280;45703;50.898;6.054;2023-03-21T05:37:36;100109.69;;;10.45;83.04
59825;BME280;45703;50.898;6.054;2023-03-21T05:40:04;100115.28;;;10.43;83.03
59825;BME280;45703;50.898;6.054;2023-03-21T05:42:31;100120.38;;;10.45;82.87
59825;BME280;45703;50.898;6.054;2023-03-21T05:44:56;100108.75;;;10.39;82.92
59825;BME280;45703;50.898;6.054;2023-03-21T05:47:22;100112.00;;;10.41;83.25
59825;BME280;45703;50.898;6.054;2023-03-21T05:49:47;100105.34;;;10.32;83.56
59825;BME280;45703;50.898;6.054;2023-03-21T05:52:14;100126.47;;;10.34;84.12
59825;BME280;45703;50.898;6.054;2023-03-21T05:54:40;100128.47;;;10.38;84.95
59825;BME280;45703;50.898;6.054;2023-03-21T05:57:06;100119.88;;;10.36;85.67
59825;BME280;45703;50.898;6.054;2023-03-21T05:59:31;100120.97;;;10.29;86.03
59825;BME280;45703;50.898;6.054;2023-03-21T06:01:57;100119.59;;;10.26;87.64
59825;BME280;45703;50.898;6.054;2023-03-21T06:04:22;100114.94;;;10.15;87.60
59825;BME280;45703;50.898;6.054;2023-03-21T06:06:47;100119.34;;;10.10;88.12
59825;BME280;45703;50.898;6.054;2023-03-21T06:09:13;100117.56;;;10.04;88.07
59825;BME280;45703;50.898;6.054;2023-03-21T06:11:47;100102.03;;;9.95;88.16
59825;BME280;45703;50.898;6.054;2023-03-21T06:14:15;100103.09;;;9.87;89.89
59825;BME280;45703;50.898;6.054;2023-03-21T06:16:41;100108.09;;;9.84;89.95
59825;BME280;45703;50.898;6.054;2023-03-21T06:19:06;100107.25;;;9.83;90.15
59825;BME280;45703;50.898;6.054;2023-03-21T06:21:32;100104.00;;;9.81;90.13
59825;BME280;45703;50.898;6.054;2023-03-21T06:23:57;100091.34;;;9.77;91.64
59825;BME280;45703;50.898;6.054;2023-03-21T06:26:22;100096.28;;;9.73;92.91
59825;BME280;45703;50.898;6.054;2023-03-21T06:28:49;100093.84;;;9.72;93.89
59825;BME280;45703;50.898;6.054;2023-03-21T06:31:15;100090.34;;;9.71;92.65
59825;BME280;45703;50.898;6.054;2023-03-21T06:33:40;100090.16;;;9.73;93.30
59825;BME280;45703;50.898;6.054;2023-03-21T06:36:06;100093.84;;;9.72;92.33
59825;BME280;45703;50.898;6.054;2023-03-21T06:38:31;100087.25;;;9.74;94.16
59825;BME280;45703;50.898;6.054;2023-03-21T06:40:57;100081.31;;;9.72;93.14
59825;BME280;45703;50.898;6.054;2023-03-21T06:43:23;100080.28;;;9.73;95.22
59825;BME280;45703;50.898;6.054;2023-03-21T06:45:48;100088.88;;;9.75;94.34
59825;BME280;45703;50.898;6.054;2023-03-21T06:48:14;100074.16;;;9.73;95.08
59825;BME280;45703;50.898;6.054;2023-03-21T06:50:39;100067.00;;;9.67;94.08
59825;BME280;45703;50.898;6.054;2023-03-21T06:53:05;100070.66;;;9.72;93.86
59825;BME280;45703;50.898;6.054;2023-03-21T06:55:30;100073.28;;;9.79;93.88
59825;BME280;45703;50.898;6.054;2023-03-21T06:57:56;100075.34;;;9.77;93.63
59825;BME280;45703;50.898;6.054;2023-03-21T07:00:22;100065.47;;;9.77;93.72
59825;BME280;45703;50.898;6.054;2023-03-21T07:02:48;100074.06;;;9.79;94.54
59825;BME280;45703;50.898;6.054;2023-03-21T07:05:14;100073.63;;;9.82;96.06
59825;BME280;45703;50.898;6.054;2023-03-21T07:07:39;100068.28;;;9.82;94.20
59825;BME280;45703;50.898;6.054;2023-03-21T07:10:05;100067.06;;;9.85;94.90
59825;BME280;45703;50.898;6.054;2023-03-21T07:12:32;100076.84;;;9.91;95.72
59825;BME280;45703;50.898;6.054;2023-03-21T07:15:04;100077.44;;;9.93;95.36
59825;BME280;45703;50.898;6.054;2023-03-21T07:17:31;100074.97;;;9.91;94.27
59825;BME280;45703;50.898;6.054;2023-03-21T07:19:57;100076.97;;;9.96;93.51
59825;BME280;45703;50.898;6.054;2023-03-21T07:22:23;100074.72;;;9.99;93.40
59825;BME280;45703;50.898;6.054;2023-03-21T07:24:48;100079.19;;;10.05;92.78
59825;BME280;45703;50.898;6.054;2023-03-21T07:27:15;100084.66;;;10.10;91.98
59825;BME280;45703;50.898;6.054;2023-03-21T07:29:40;100076.22;;;10.13;91.46
59825;BME280;45703;50.898;6.054;2023-03-21T07:32:06;100078.59;;;10.21;91.70
59825;BME280;45703;50.898;6.054;2023-03-21T07:34:32;100075.91;;;10.21;91.93
59825;BME280;45703;50.898;6.054;2023-03-21T07:36:58;100083.03;;;10.27;90.97
59825;BME280;45703;50.898;6.054;2023-03-21T07:39:24;100079.47;;;10.33;90.52
59825;BME280;45703;50.898;6.054;2023-03-21T07:41:50;100072.19;;;10.40;90.64
59825;BME280;45703;50.898;6.054;2023-03-21T07:44:15;100074.88;;;10.40;90.60
59825;BME280;45703;50.898;6.054;2023-03-21T07:46:41;100076.63;;;10.46;90.58
59825;BME280;45703;50.898;6.054;2023-03-21T07:49:06;100072.13;;;10.46;90.55
59825;BME280;45703;50.898;6.054;2023-03-21T07:51:33;100074.94;;;10.51;90.44
59825;BME280;45703;50.898;6.054;2023-03-21T07:54:00;100079.38;;;10.57;90.12
59825;BME280;45703;50.898;6.054;2023-03-21T07:56:29;100079.75;;;10.61;90.75
59825;BME280;45703;50.898;6.054;2023-03-21T07:58:54;100085.69;;;10.63;89.61
59825;BME280;45703;50.898;6.054;2023-03-21T08:01:19;100076.75;;;10.69;89.16
59825;BME280;45703;50.898;6.054;2023-03-21T08:03:46;100088.63;;;10.73;89.11
59825;BME280;45703;50.898;6.054;2023-03-21T08:06:12;100093.88;;;10.79;89.08
59825;BME280;45703;50.898;6.054;2023-03-21T08:08:38;100080.53;;;10.79;88.86
59825;BME280;45703;50.898;6.054;2023-03-21T08:11:04;100088.88;;;10.83;88.66
59825;BME280;45703;50.898;6.054;2023-03-21T08:13:30;100088.44;;;10.86;88.31
59825;BME280;45703;50.898;6.054;2023-03-21T08:15:55;100096.56;;;10.91;87.57
59825;BME280;45703;50.898;6.054;2023-03-21T08:18:21;100087.06;;;10.95;87.52
59825;BME280;45703;50.898;6.054;2023-03-21T08:20:53;100081.50;;;10.96;87.31
59825;BME280;45703;50.898;6.054;2023-03-21T08:23:19;100094.19;;;11.01;86.80
59825;BME280;45703;50.898;6.054;2023-03-21T08:25:46;100086.19;;;11.01;86.94
59825;BME280;45703;50.898;6.054;2023-03-21T08:28:15;100088.63;;;11.02;86.98
59825;BME280;45703;50.898;6.054;2023-03-21T08:30:40;100080.28;;;11.10;86.65
59825;BME280;45703;50.898;6.054;2023-03-21T08:33:06;100085.41;;;11.12;86.60
59825;BME280;45703;50.898;6.054;2023-03-21T08:35:32;100085.28;;;11.18;86.15
59825;BME280;45703;50.898;6.054;2023-03-21T08:37:57;100083.34;;;11.25;85.56
59825;BME280;45703;50.898;6.054;2023-03-21T08:40:22;100080.81;;;11.30;85.52
59825;BME280;45703;50.898;6.054;2023-03-21T08:42:48;100092.88;;;11.33;86.15
59825;BME280;45703;50.898;6.054;2023-03-21T08:45:15;100101.84;;;11.38;85.38
59825;BME280;45703;50.898;6.054;2023-03-21T08:47:41;100084.41;;;11.36;85.79
59825;BME280;45703;50.898;6.054;2023-03-21T08:50:08;100096.63;;;11.43;85.92
59825;BME280;45703;50.898;6.054;2023-03-21T08:52:34;100093.72;;;11.44;86.32
59825;BME280;45703;50.898;6.054;2023-03-21T08:55:00;100096.06;;;11.52;85.81
59825;BME280;45703;50.898;6.054;2023-03-21T08:57:27;100085.13;;;11.54;86.06
59825;BME280;45703;50.898;6.054;2023-03-21T08:59:52;100084.47;;;11.58;85.95
59825;BME280;45703;50.898;6.054;2023-03-21T09:02:18;100081.22;;;11.56;86.31
59825;BME280;45703;50.898;6.054;2023-03-21T09:04:43;100078.31;;;11.58;86.33
59825;BME280;45703;50.898;6.054;2023-03-21T09:07:09;100079.00;;;11.65;86.17
59825;BME280;45703;50.898;6.054;2023-03-21T09:09:37;100073.44;;;11.66;85.79
59825;BME280;45703;50.898;6.054;2023-03-21T09:12:02;100074.03;;;11.68;86.65
59825;BME280;45703;50.898;6.054;2023-03-21T09:14:28;100074.97;;;11.74;85.93
59825;BME280;45703;50.898;6.054;2023-03-21T09:16:53;100062.50;;;11.79;85.77
59825;BME280;45703;50.898;6.054;2023-03-21T09:19:19;100061.56;;;11.85;85.94
59825;BME280;45703;50.898;6.054;2023-03-21T09:21:44;100054.22;;;11.92;85.56
59825;BME280;45703;50.898;6.054;2023-03-21T09:24:10;100061.47;;;12.03;85.94
59825;BME280;45703;50.898;6.054;2023-03-21T09:26:37;100048.97;;;12.09;85.91
59825;BME280;45703;50.898;6.054;2023-03-21T09:29:03;100059.78;;;12.25;85.36
59825;BME280;45703;50.898;6.054;2023-03-21T09:31:30;100051.16;;;12.35;85.40
59825;BME280;45703;50.898;6.054;2023-03-21T09:33:56;100057.28;;;12.47;84.82
59825;BME280;45703;50.898;6.054;2023-03-21T09:36:23;100052.69;;;12.59;84.79
59825;BME280;45703;50.898;6.054;2023-03-21T09:38:52;100045.69;;;12.69;83.81
59825;BME280;45703;50.898;6.054;2023-03-21T09:49:18;100036.59;;;12.98;82.06
59825;BME280;45703;50.898;6.054;2023-03-21T09:51:48;100025.28;;;12.96;81.69
59825;BME280;45703;50.898;6.054;2023-03-21T09:54:24;100028.53;;;12.98;81.24
59825;BME280;45703;50.898;6.054;2023-03-21T09:56:53;100028.88;;;13.01;81.37
59825;BME280;45703;50.898;6.054;2023-03-21T09:59:40;100033.63;;;13.11;81.49
59825;BME280;45703;50.898;6.054;2023-03-21T10:02:24;100026.16;;;13.13;82.25
59825;BME280;45703;50.898;6.054;2023-03-21T10:04:58;100033.78;;;13.21;81.24
59825;BME280;45703;50.898;6.054;2023-03-21T10:07:23;100014.53;;;13.24;80.79
59825;BME280;45703;50.898;6.054;2023-03-21T10:09:49;100016.09;;;13.36;81.37
59825;BME280;45703;50.898;6.054;2023-03-21T10:12:21;100010.03;;;13.46;80.45
59825;BME280;45703;50.898;6.054;2023-03-21T10:14:47;100005.91;;;13.55;81.74
59825;BME280;45703;50.898;6.054;2023-03-21T10:17:34;100003.88;;;13.62;81.60
59825;BME280;45703;50.898;6.054;2023-03-21T10:20:34;100001.81;;;13.69;81.34
59825;BME280;45703;50.898;6.054;2023-03-21T10:23:03;99992.94;;;13.68;80.27
59825;BME280;45703;50.898;6.054;2023-03-21T10:25:35;99991.31;;;13.67;79.07
59825;BME280;45703;50.898;6.054;2023-03-21T10:28:03;99982.91;;;13.59;77.40
59825;BME280;45703;50.898;6.054;2023-03-21T10:30:33;99980.63;;;13.51;79.11
59825;BME280;45703;50.898;6.054;2023-03-21T10:33:02;99977.94;;;13.51;78.65
59825;BME280;45703;50.898;6.054;2023-03-21T10:35:30;99981.09;;;13.48;77.83
59825;BME280;45703;50.898;6.054;2023-03-21T10:37:58;99964.72;;;13.44;78.72
59825;BME280;45703;50.898;6.054;2023-03-21T10:40:25;99971.13;;;13.43;78.74
59825;BME280;45703;50.898;6.054;2023-03-21T10:42:56;99970.09;;;13.44;79.67
59825;BME280;45703;50.898;6.054;2023-03-21T10:45:40;99967.06;;;13.41;78.49
59825;BME280;45703;50.898;6.054;2023-03-21T10:48:08;99958.38;;;13.34;77.92
59825;BME280;45703;50.898;6.054;2023-03-21T10:50:35;99965.63;;;13.33;77.86
59825;BME280;45703;50.898;6.054;2023-03-21T10:53:00;99967.97;;;13.30;77.67
59825;BME280;45703;50.898;6.054;2023-03-21T10:55:30;99966.00;;;13.25;77.38
59825;BME280;45703;50.898;6.054;2023-03-21T10:58:01;99973.19;;;13.20;78.28
59825;BME280;45703;50.898;6.054;2023-03-21T11:00:33;99963.94;;;13.11;77.44
59825;BME280;45703;50.898;6.054;2023-03-21T11:03:00;99977.00;;;13.07;78.90
59825;BME280;45703;50.898;6.054;2023-03-21T11:05:37;99974.00;;;13.04;78.73
59825;BME280;45703;50.898;6.054;2023-03-21T11:08:09;99977.16;;;13.01;79.07
59825;BME280;45703;50.898;6.054;2023-03-21T11:10:39;99975.53;;;13.00;78.54
59825;BME280;45703;50.898;6.054;2023-03-21T11:13:24;99980.00;;;12.95;78.74
59825;BME280;45703;50.898;6.054;2023-03-21T11:15:54;99984.53;;;12.94;78.74
59825;BME280;45703;50.898;6.054;2023-03-21T11:18:29;99977.53;;;12.93;78.63
59825;BME280;45703;50.898;6.054;2023-03-21T11:21:02;99977.06;;;12.96;79.64
59825;BME280;45703;50.898;6.054;2023-03-21T11:23:31;99971.41;;;12.93;79.50
59825;BME280;45703;50.898;6.054;2023-03-21T11:25:59;99990.81;;;12.99;79.86
59825;BME280;45703;50.898;6.054;2023-03-21T11:28:32;99981.94;;;12.99;79.05
59825;BME280;45703;50.898;6.054;2023-03-21T11:31:04;99973.31;;;12.97;79.77
59825;BME280;45703;50.898;6.054;2023-03-21T11:33:48;99972.53;;;12.97;79.82
59825;BME280;45703;50.898;6.054;2023-03-21T11:36:30;99942.22;;;12.96;79.59
59825;BME280;45703;50.898;6.054;2023-03-21T11:39:13;99963.75;;;13.01;79.95
59825;BME280;45703;50.898;6.054;2023-03-21T11:41:40;99961.19;;;13.06;78.81
59825;BME280;45703;50.898;6.054;2023-03-21T11:44:24;99956.94;;;13.10;79.24
59825;BME280;45703;50.898;6.054;2023-03-21T11:46:51;99958.38;;;13.17;76.84
59825;BME280;45703;50.898;6.054;2023-03-21T11:49:16;99962.78;;;13.23;77.73
59825;BME280;45703;50.898;6.054;2023-03-21T11:52:00;99959.69;;;13.31;77.87
59825;BME280;45703;50.898;6.054;2023-03-21T12:00:11;99957.81;;;13.48;76.72
59825;BME280;45703;50.898;6.054;2023-03-21T12:02:53;99947.97;;;13.54;75.83
59825;BME280;45703;50.898;6.054;2023-03-21T12:05:32;99964.38;;;13.57;74.85
59825;BME280;45703;50.898;6.054;2023-03-21T12:08:05;99952.91;;;13.62;76.43
59825;BME280;45703;50.898;6.054;2023-03-21T12:13:46;99947.00;;;13.81;73.91
59825;BME280;45703;50.898;6.054;2023-03-21T12:16:42;99935.81;;;13.89;72.64
59825;BME280;45703;50.898;6.054;2023-03-21T12:19:36;99923.03;;;13.96;73.13
59825;BME280;45703;50.898;6.054;2023-03-21T12:25:18;99909.63;;;14.18;73.58
59825;BME280;45703;50.898;6.054;2023-03-21T12:33:58;99906.72;;;14.50;74.01
59825;BME280;45703;50.898;6.054;2023-03-21T12:39:27;99886.47;;;14.64;71.93
59825;BME280;45703;50.898;6.054;2023-03-21T12:44:40;99890.38;;;14.83;68.55
59825;BME280;45703;50.898;6.054;2023-03-21T12:47:29;99893.69;;;14.95;69.51
59825;BME280;45703;50.898;6.054;2023-03-21T12:50:14;99890.03;;;15.06;68.71
59825;BME280;45703;50.898;6.054;2023-03-21T12:52:45;99867.50;;;15.17;69.99
59825;BME280;45703;50.898;6.054;2023-03-21T12:55:23;99879.44;;;15.31;70.24
59825;BME280;45703;50.898;6.054;2023-03-21T12:58:01;99866.00;;;15.31;68.40
59825;BME280;45703;50.898;6.054;2023-03-21T13:00:58;99862.81;;;15.39;68.16
59825;BME280;45703;50.898;6.054;2023-03-21T13:03:33;99867.41;;;15.39;66.01
59825;BME280;45703;50.898;6.054;2023-03-21T13:06:03;99861.19;;;15.38;64.94
59825;BME280;45703;50.898;6.054;2023-03-21T13:11:07;99846.69;;;15.44;66.34
59825;BME280;45703;50.898;6.054;2023-03-21T13:21:36;99839.94;;;15.32;64.43
59825;BME280;45703;50.898;6.054;2023-03-21T13:29:45;99852.06;;;15.44;65.37
59825;BME280;45703;50.898;6.054;2023-03-21T13:37:42;99841.91;;;15.56;64.52
59825;BME280;45703;50.898;6.054;2023-03-21T13:40:34;99831.13;;;15.56;64.09
59825;BME280;45703;50.898;6.054;2023-03-21T13:43:01;99831.13;;;15.51;62.98
59825;BME280;45703;50.898;6.054;2023-03-21T13:45:44;99840.56;;;15.59;63.95
59825;BME280;45703;50.898;6.054;2023-03-21T13:48:29;99843.00;;;15.60;63.50
59825;BME280;45703;50.898;6.054;2023-03-21T13:50:58;99837.91;;;15.64;64.04
59825;BME280;45703;50.898;6.054;2023-03-21T13:53:29;99837.09;;;15.63;60.56
59825;BME280;45703;50.898;6.054;2023-03-21T14:01:20;99830.63;;;15.59;61.85
59825;BME280;45703;50.898;6.054;2023-03-21T14:03:48;99820.94;;;15.58;61.21
59825;BME280;45703;50.898;6.054;2023-03-21T14:06:15;99818.81;;;15.65;60.38
59825;BME280;45703;50.898;6.054;2023-03-21T14:08:46;99824.22;;;15.75;60.54
59825;BME280;45703;50.898;6.054;2023-03-21T14:11:15;99812.16;;;15.88;60.03
59825;BME280;45703;50.898;6.054;2023-03-21T14:13:43;99791.41;;;15.88;58.97
59825;BME280;45703;50.898;6.054;2023-03-21T14:16:12;99796.81;;;16.03;61.61
59825;BME280;45703;50.898;6.054;2023-03-21T14:18:49;99812.72;;;16.04;60.53
59825;BME280;45703;50.898;6.054;2023-03-21T14:21:19;99809.47;;;15.93;57.59
59825;BME280;45703;50.898;6.054;2023-03-21T14:23:44;99821.56;;;15.85;58.38
59825;BME280;45703;50.898;6.054;2023-03-21T14:26:11;99818.31;;;15.73;58.06
59825;BME280;45703;50.898;6.054;2023-03-21T14:28:46;99826.34;;;15.63;58.24
59825;BME280;45703;50.898;6.054;2023-03-21T14:31:14;99811.25;;;15.57;59.73
59825;BME280;45703;50.898;6.054;2023-03-21T14:33:47;99804.22;;;15.56;60.46
59825;BME280;45703;50.898;6.054;2023-03-21T14:36:23;99806.66;;;15.53;59.49
59825;BME280;45703;50.898;6.054;2023-03-21T14:39:04;99800.53;;;15.67;60.16
59825;BME280;45703;50.898;6.054;2023-03-21T14:41:32;99800.53;;;15.72;58.30
59825;BME280;45703;50.898;6.054;2023-03-21T14:46:28;99796.25;;;15.81;58.28